Time;durP1;ratioP1;P1;durP2;ratioP2;P2;SDS_P1;SDS_P2;PMS_P1;PMS_P2;Temp;Humidity;BMP_temperature;BMP_pressure;BME280_temperature;BME280_humidity;BME280_pressure;Samples;Min_cycle;Max_cycle;Signal;HPM_P1;HPM_P2
2022/08/31 00:04:49;;;;;;;8.30;4.47;;;20.10;83.80;;;;;;5075172;28;20043;-13
2022/08/31 00:07:15;;;;;;;5.10;4.07;;;20.10;83.70;;;;;;5074553;28;20115;-12
2022/08/31 00:09:41;;;;;;;6.97;4.75;;;20.10;83.40;;;;;;5075528;28;20109;-13
2022/08/31 00:12:07;;;;;;;8.77;4.80;;;20.10;84.20;;;;;;5075166;28;20059;-12
2022/08/31 00:14:33;;;;;;;5.35;4.07;;;20.00;84.30;;;;;;5074778;28;20082;-9
2022/08/31 00:16:59;;;;;;;6.75;4.63;;;20.00;84.20;;;;;;5075086;28;20044;-10
2022/08/31 00:19:25;;;;;;;6.60;4.40;;;20.00;84.60;;;;;;5074841;28;20062;-11
2022/08/31 00:21:51;;;;;;;6.03;4.00;;;20.00;83.80;;;;;;5074973;28;20066;-10
2022/08/31 00:24:17;;;;;;;5.55;4.05;;;20.10;83.10;;;;;;5074872;28;20029;-10
2022/08/31 00:26:43;;;;;;;6.43;4.30;;;20.10;83.40;;;;;;5074731;28;20400;-11
2022/08/31 00:29:10;;;;;;;18.95;6.20;;;20.10;83.10;;;;;;5074374;28;20023;-12
2022/08/31 00:31:37;;;;;;;14.00;5.13;;;20.10;84.60;;;;;;5074442;28;20029;-11
2022/08/31 00:34:03;;;;;;;12.32;4.60;;;20.00;84.30;;;;;;5074618;28;20044;-11
2022/08/31 00:36:29;;;;;;;7.80;4.13;;;19.90;84.40;;;;;;5074544;28;20362;-9
2022/08/31 00:38:55;;;;;;;5.22;3.85;;;19.80;85.00;;;;;;5074116;28;20036;-10
2022/08/31 00:41:26;;;;;;;7.70;4.03;;;19.60;85.30;;;;;;5073005;28;20028;-10
2022/08/31 00:43:56;;;;;;;6.50;3.78;;;19.50;85.60;;;;;;5074558;28;20028;-11
2022/08/31 00:46:27;;;;;;;7.90;4.00;;;19.30;86.10;;;;;;5074487;28;20052;-11
2022/08/31 00:49:10;;;;;;;9.43;4.55;;;19.20;86.40;;;;;;5073784;28;20587;-10
2022/08/31 00:51:45;;;;;;;6.20;4.60;;;19.20;86.90;;;;;;5074743;28;20024;-10
2022/08/31 00:54:15;;;;;;;5.22;3.97;;;19.10;87.10;;;;;;5074284;28;20016;-10
2022/08/31 00:56:43;;;;;;;9.45;4.93;;;18.90;87.50;;;;;;5074028;28;20103;-10
2022/08/31 00:59:11;;;;;;;6.57;4.47;;;18.90;87.50;;;;;;5073559;28;20289;-10
2022/08/31 01:01:38;;;;;;;6.82;4.40;;;18.90;87.70;;;;;;5074103;28;20075;-10
2022/08/31 01:04:04;;;;;;;7.95;4.90;;;18.90;87.80;;;;;;5071811;28;20029;-10
2022/08/31 01:06:30;;;;;;;7.65;4.80;;;18.90;88.20;;;;;;5073814;28;20029;-10
2022/08/31 01:08:59;;;;;;;7.05;4.32;;;18.80;88.40;;;;;;5073499;28;20032;-10
2022/08/31 01:11:25;;;;;;;6.03;4.43;;;18.80;88.10;;;;;;5072585;28;20025;-10
2022/08/31 01:13:52;;;;;;;6.47;4.53;;;18.80;88.00;;;;;;5073596;28;20040;-10
2022/08/31 01:16:25;;;;;;;7.88;4.43;;;18.80;88.20;;;;;;5074111;28;20029;-10
2022/08/31 01:18:55;;;;;;;5.63;4.05;;;18.80;88.10;;;;;;5073188;28;20085;-10
2022/08/31 01:21:51;;;;;;;6.15;4.50;;;18.80;88.10;;;;;;5073978;28;20384;-11
2022/08/31 01:24:18;;;;;;;6.05;4.40;;;18.70;88.20;;;;;;5073504;28;20025;-10
2022/08/31 01:26:45;;;;;;;6.15;4.53;;;18.80;88.30;;;;;;5073749;28;20103;-10
2022/08/31 01:29:11;;;;;;;6.25;4.30;;;18.80;88.30;;;;;;5072019;28;20051;-11
2022/08/31 01:31:43;;;;;;;5.88;4.32;;;18.80;88.50;;;;;;5073561;28;20376;-10
2022/08/31 01:34:10;;;;;;;7.07;4.47;;;18.80;88.30;;;;;;5073175;28;20540;-10
2022/08/31 01:36:39;;;;;;;5.35;3.90;;;18.80;87.90;;;;;;5073861;28;20105;-10
2022/08/31 01:39:07;;;;;;;5.65;4.15;;;18.90;87.50;;;;;;5073274;28;20035;-10
2022/08/31 01:41:33;;;;;;;6.35;4.10;;;18.90;87.80;;;;;;5073891;28;20048;-10
2022/08/31 01:43:59;;;;;;;5.60;4.35;;;18.90;88.00;;;;;;5073529;28;20427;-10
2022/08/31 01:46:25;;;;;;;6.30;4.18;;;18.90;88.20;;;;;;5073505;28;20028;-10
2022/08/31 01:48:51;;;;;;;5.57;4.20;;;18.90;88.10;;;;;;5073101;28;20030;-10
2022/08/31 01:51:20;;;;;;;4.72;3.83;;;18.90;87.90;;;;;;5071762;28;20547;-10
2022/08/31 01:53:48;;;;;;;7.38;3.80;;;18.90;87.50;;;;;;5073116;28;20392;-10
2022/08/31 01:56:21;;;;;;;4.32;3.50;;;18.90;86.90;;;;;;5073458;28;20427;-10
2022/08/31 01:58:47;;;;;;;7.63;4.03;;;18.90;86.60;;;;;;5072647;28;20076;-11
2022/08/31 02:01:14;;;;;;;5.40;3.45;;;19.00;86.50;;;;;;5073013;28;20032;-10
2022/08/31 02:03:40;;;;;;;5.20;3.60;;;19.00;86.00;;;;;;5073376;28;20056;-10
2022/08/31 02:06:12;;;;;;;5.13;3.60;;;19.10;85.80;;;;;;5073066;28;20388;-9
2022/08/31 02:08:38;;;;;;;4.68;3.50;;;19.10;85.60;;;;;;5073290;28;20107;-11
2022/08/31 02:11:06;;;;;;;4.53;3.40;;;19.20;85.40;;;;;;5071523;28;20464;-11
2022/08/31 02:13:33;;;;;;;4.90;3.70;;;19.30;85.30;;;;;;5073215;28;20028;-11
2022/08/31 02:16:00;;;;;;;4.80;3.40;;;19.30;85.20;;;;;;5076193;28;20082;-10
2022/08/31 02:18:27;;;;;;;5.50;3.50;;;19.30;85.20;;;;;;5077441;28;20538;-11
2022/08/31 02:20:54;;;;;;;6.68;3.80;;;19.20;85.20;;;;;;5077132;28;20039;-10
2022/08/31 02:23:20;;;;;;;4.82;3.65;;;19.20;85.20;;;;;;5076769;28;20111;-10
2022/08/31 02:25:47;;;;;;;4.72;3.58;;;19.20;85.20;;;;;;5075642;28;20037;-11
2022/08/31 02:28:17;;;;;;;5.75;3.60;;;19.20;85.20;;;;;;5076812;28;20066;-11
2022/08/31 02:30:44;;;;;;;6.68;3.60;;;19.10;85.40;;;;;;5076775;28;20020;-11
2022/08/31 02:33:10;;;;;;;5.45;3.83;;;19.00;85.60;;;;;;5076594;28;20093;-11
2022/08/31 02:35:37;;;;;;;9.20;4.10;;;18.90;86.30;;;;;;5076730;28;20035;-12
2022/08/31 02:38:05;;;;;;;7.47;4.05;;;18.90;87.40;;;;;;5076625;28;20032;-11
2022/08/31 02:40:31;;;;;;;6.00;3.83;;;18.80;88.00;;;;;;5076854;28;20037;-12
2022/08/31 02:42:57;;;;;;;5.85;3.67;;;18.70;87.50;;;;;;5075062;28;20495;-11
2022/08/31 02:45:23;;;;;;;4.22;3.17;;;18.70;87.30;;;;;;5076768;28;20056;-12
2022/08/31 02:47:49;;;;;;;6.10;3.95;;;18.70;87.20;;;;;;5076360;28;20163;-11
2022/08/31 02:50:15;;;;;;;5.43;3.60;;;18.70;87.50;;;;;;5076996;28;20071;-12
2022/08/31 02:52:41;;;;;;;8.15;3.90;;;18.60;87.30;;;;;;5076324;28;20059;-12
2022/08/31 02:55:08;;;;;;;6.88;3.53;;;18.60;87.40;;;;;;5076234;28;20031;-12
2022/08/31 02:57:34;;;;;;;5.63;3.63;;;18.50;87.10;;;;;;5075912;28;20154;-12
2022/08/31 03:00:00;;;;;;;6.25;4.03;;;18.50;88.80;;;;;;5076326;28;20149;-12
2022/08/31 03:02:25;;;;;;;5.15;3.42;;;18.40;88.90;;;;;;5076180;28;20039;-12
2022/08/31 03:04:51;;;;;;;5.10;3.20;;;18.40;89.40;;;;;;5075880;28;20102;-12
2022/08/31 03:07:17;;;;;;;6.22;3.47;;;18.30;89.70;;;;;;5076096;28;20028;-12
2022/08/31 03:09:44;;;;;;;6.15;3.75;;;18.20;89.40;;;;;;5076040;28;20019;-11
2022/08/31 03:12:10;;;;;;;5.15;3.25;;;18.20;89.60;;;;;;5075940;28;20366;-12
2022/08/31 03:14:36;;;;;;;6.82;3.17;;;18.20;89.60;;;;;;5076087;28;20036;-10
2022/08/31 03:17:02;;;;;;;6.00;3.63;;;18.10;89.80;;;;;;5075605;28;20510;-11
2022/08/31 03:19:28;;;;;;;5.50;3.30;;;18.10;90.20;;;;;;5075766;28;20028;-11
2022/08/31 03:21:54;;;;;;;5.35;3.33;;;18.10;90.00;;;;;;5076015;28;20048;-12
2022/08/31 03:24:27;;;;;;;5.55;3.47;;;18.00;90.10;;;;;;5075756;28;20081;-12
2022/08/31 03:26:54;;;;;;;3.60;2.90;;;18.10;89.90;;;;;;5074855;28;20024;-12
2022/08/31 03:29:20;;;;;;;6.45;3.70;;;18.10;89.80;;;;;;5075544;28;20035;-12
2022/08/31 03:31:46;;;;;;;5.10;3.38;;;18.10;89.60;;;;;;5075919;28;20111;-12
2022/08/31 03:34:12;;;;;;;3.58;3.00;;;18.10;89.50;;;;;;5075705;28;20442;-12
2022/08/31 03:36:38;;;;;;;8.25;3.55;;;18.10;89.20;;;;;;5075694;28;20032;-11
2022/08/31 03:39:04;;;;;;;4.63;2.97;;;18.20;89.10;;;;;;5075317;28;20029;-12
2022/08/31 03:41:30;;;;;;;5.07;3.13;;;18.20;89.00;;;;;;5075452;28;20036;-12
2022/08/31 03:43:56;;;;;;;5.60;3.20;;;18.20;89.10;;;;;;5075629;28;20082;-12
2022/08/31 03:46:22;;;;;;;8.10;3.75;;;18.20;89.00;;;;;;5075438;28;20025;-12
2022/08/31 03:48:49;;;;;;;3.97;2.80;;;18.20;89.00;;;;;;5075059;28;20028;-12
2022/08/31 03:51:18;;;;;;;5.25;3.20;;;18.30;88.90;;;;;;5075280;28;20437;-12
2022/08/31 03:53:43;;;;;;;5.32;3.03;;;18.20;88.90;;;;;;5075552;28;20104;-12
2022/08/31 03:56:09;;;;;;;4.85;2.90;;;18.20;88.90;;;;;;5075575;28;20427;-12
2022/08/31 03:58:37;;;;;;;5.25;3.00;;;18.20;89.00;;;;;;5074813;28;20056;-11
2022/08/31 04:01:04;;;;;;;6.03;3.53;;;18.20;89.10;;;;;;5075205;28;20021;-12
2022/08/31 04:03:30;;;;;;;4.53;2.90;;;18.20;89.40;;;;;;5075232;28;20039;-11
2022/08/31 04:05:56;;;;;;;4.43;2.83;;;18.20;89.40;;;;;;5075014;28;20496;-12
2022/08/31 04:08:24;;;;;;;4.40;3.03;;;18.20;89.10;;;;;;5075311;28;20056;-11
2022/08/31 04:10:52;;;;;;;4.30;3.28;;;18.20;89.20;;;;;;5075233;28;20546;-11
2022/08/31 04:13:18;;;;;;;4.85;3.40;;;18.20;89.30;;;;;;5075405;28;20027;-12
2022/08/31 04:15:45;;;;;;;5.28;3.40;;;18.20;89.40;;;;;;5075054;28;20032;-12
2022/08/31 04:18:12;;;;;;;6.30;3.70;;;18.20;89.20;;;;;;5074854;28;20033;-12
2022/08/31 04:20:39;;;;;;;10.13;3.58;;;18.20;89.60;;;;;;5075048;28;20024;-11
2022/08/31 04:23:06;;;;;;;7.88;4.53;;;18.20;90.00;;;;;;5074763;28;20028;-12
2022/08/31 04:25:37;;;;;;;6.60;4.05;;;18.20;90.10;;;;;;5075385;28;20025;-11
2022/08/31 04:28:04;;;;;;;7.15;3.90;;;18.20;90.40;;;;;;5074572;28;20031;-11
2022/08/31 04:30:30;;;;;;;4.70;3.45;;;18.20;90.50;;;;;;5075044;28;20020;-11
2022/08/31 04:32:56;;;;;;;5.00;3.60;;;18.20;90.70;;;;;;5074105;28;20481;-11
2022/08/31 04:35:22;;;;;;;6.82;4.05;;;18.10;90.50;;;;;;5074674;28;20103;-11
2022/08/31 04:37:48;;;;;;;4.30;3.00;;;18.10;90.10;;;;;;5074209;28;20031;-11
2022/08/31 04:40:18;;;;;;;5.47;3.20;;;18.10;89.60;;;;;;5073687;28;20025;-12
2022/08/31 04:42:46;;;;;;;4.13;2.92;;;18.10;89.30;;;;;;5074386;28;20484;-11
2022/08/31 04:45:13;;;;;;;5.10;3.20;;;18.20;89.20;;;;;;5075188;28;20020;-11
2022/08/31 04:47:41;;;;;;;5.80;3.28;;;18.20;89.10;;;;;;5074298;28;20029;-11
2022/08/31 04:50:12;;;;;;;4.95;3.28;;;18.10;89.10;;;;;;5074488;28;20131;-12
2022/08/31 04:52:38;;;;;;;4.88;3.03;;;18.10;89.00;;;;;;5074113;28;20029;-12
2022/08/31 04:55:05;;;;;;;4.68;3.45;;;18.20;89.00;;;;;;5072646;28;20028;-12
2022/08/31 04:57:34;;;;;;;6.25;3.47;;;18.10;89.10;;;;;;5072566;28;20062;-11
2022/08/31 05:00:02;;;;;;;5.22;3.40;;;18.20;89.00;;;;;;5073898;28;20123;-12
2022/08/31 05:02:30;;;;;;;5.03;3.50;;;18.20;89.00;;;;;;5073744;28;20385;-12
2022/08/31 05:04:55;;;;;;;7.90;4.50;;;18.30;89.00;;;;;;5073597;28;20020;-12
2022/08/31 05:07:21;;;;;;;8.40;4.53;;;18.30;89.20;;;;;;5074096;28;20036;-12
2022/08/31 05:09:48;;;;;;;6.72;4.47;;;18.30;89.50;;;;;;5074097;28;20032;-12
2022/08/31 05:12:13;;;;;;;7.65;4.65;;;18.30;89.80;;;;;;5074527;28;20035;-12
2022/08/31 05:14:40;;;;;;;8.68;4.72;;;18.30;89.90;;;;;;5073603;28;20028;-12
2022/08/31 05:17:06;;;;;;;7.57;4.40;;;18.40;90.20;;;;;;5073426;28;20044;-12
2022/08/31 05:19:32;;;;;;;7.47;4.50;;;18.40;90.30;;;;;;5073463;28;20028;-12
2022/08/31 05:21:58;;;;;;;7.22;4.53;;;18.40;90.40;;;;;;5073845;28;20028;-12
2022/08/31 05:24:24;;;;;;;10.23;4.78;;;18.50;90.60;;;;;;5073447;28;20415;-12
2022/08/31 05:26:53;;;;;;;8.85;5.25;;;18.50;90.50;;;;;;5073213;28;20024;-12
2022/08/31 05:29:22;;;;;;;8.77;4.60;;;18.50;90.70;;;;;;5073447;28;20032;-11
2022/08/31 05:31:49;;;;;;;10.07;4.47;;;18.50;90.60;;;;;;5073443;28;20032;-12
2022/08/31 05:34:16;;;;;;;6.40;4.60;;;18.50;90.50;;;;;;5073873;28;20394;-12
2022/08/31 05:36:44;;;;;;;7.18;4.68;;;18.50;90.40;;;;;;5073726;28;20036;-11
2022/08/31 05:39:12;;;;;;;6.78;4.50;;;18.60;90.40;;;;;;5073350;28;20036;-11
2022/08/31 05:41:40;;;;;;;7.60;4.47;;;18.60;90.30;;;;;;5073551;28;20028;-11
2022/08/31 05:44:06;;;;;;;7.15;4.57;;;18.60;90.10;;;;;;5073602;28;20036;-11
2022/08/31 05:46:33;;;;;;;4.93;3.80;;;18.60;89.90;;;;;;5073661;28;20032;-11
2022/08/31 05:49:00;;;;;;;6.95;4.18;;;18.60;90.00;;;;;;5072857;28;20024;-12
2022/08/31 05:51:26;;;;;;;7.80;3.90;;;18.70;90.00;;;;;;5072937;28;20031;-11
2022/08/31 05:53:52;;;;;;;5.50;3.45;;;18.70;90.10;;;;;;5071938;28;20017;-11
2022/08/31 05:56:23;;;;;;;7.95;4.88;;;18.70;89.70;;;;;;5073402;28;20028;-11
2022/08/31 05:58:50;;;;;;;7.28;4.65;;;18.80;90.00;;;;;;5072622;28;20110;-12
2022/08/31 06:01:23;;;;;;;7.00;4.15;;;18.80;90.00;;;;;;5073043;28;20048;-11
2022/08/31 06:03:52;;;;;;;4.95;3.55;;;18.90;90.10;;;;;;5073226;28;20107;-11
2022/08/31 06:06:18;;;;;;;6.63;3.90;;;18.90;89.60;;;;;;5073293;28;20032;-11
2022/08/31 06:08:45;;;;;;;5.70;3.90;;;19.00;89.10;;;;;;5073080;28;20500;-12
2022/08/31 06:11:16;;;;;;;4.38;3.33;;;19.10;89.30;;;;;;5072729;28;20029;-11
2022/08/31 06:13:42;;;;;;;4.95;3.80;;;19.20;89.10;;;;;;5073279;28;20102;-12
2022/08/31 06:16:08;;;;;;;4.35;3.42;;;19.30;89.10;;;;;;5072981;28;20031;-11
2022/08/31 06:18:37;;;;;;;5.68;3.50;;;19.40;88.90;;;;;;5072697;28;20479;-11
2022/08/31 06:21:07;;;;;;;4.20;3.55;;;19.50;88.60;;;;;;5072950;28;20048;-12
2022/08/31 06:23:38;;;;;;;6.45;3.67;;;19.60;88.40;;;;;;5072850;28;20440;-11
2022/08/31 06:26:11;;;;;;;4.35;3.40;;;19.70;88.40;;;;;;5073167;28;20016;-13
2022/08/31 06:28:42;;;;;;;4.72;3.80;;;19.80;87.90;;;;;;5072891;28;20036;-12
2022/08/31 06:31:19;;;;;;;6.53;4.28;;;19.90;87.60;;;;;;5072641;28;20020;-11
2022/08/31 06:33:46;;;;;;;4.25;3.38;;;20.00;87.40;;;;;;5072706;28;20154;-11
2022/08/31 06:36:17;;;;;;;4.65;3.40;;;20.20;87.00;;;;;;5073004;28;20063;-12
2022/08/31 06:38:44;;;;;;;6.50;3.97;;;20.30;86.60;;;;;;5072620;28;20029;-11
2022/08/31 06:41:17;;;;;;;5.53;3.55;;;20.30;86.60;;;;;;5072800;28;20045;-12
2022/08/31 06:43:44;;;;;;;4.05;3.00;;;20.40;86.50;;;;;;5072712;28;20488;-11
2022/08/31 06:46:11;;;;;;;4.43;3.20;;;20.30;86.40;;;;;;5073244;28;20094;-12
2022/08/31 06:48:37;;;;;;;4.18;3.10;;;20.40;86.20;;;;;;5072819;28;20039;-10
2022/08/31 06:51:06;;;;;;;4.70;3.28;;;20.40;86.20;;;;;;5072905;28;20369;-11
2022/08/31 06:53:33;;;;;;;7.28;4.80;;;20.40;86.00;;;;;;5072797;28;20033;-12
2022/08/31 06:56:07;;;;;;;6.50;4.50;;;20.40;85.90;;;;;;5072535;28;20032;-11
2022/08/31 06:58:34;;;;;;;7.57;4.82;;;20.40;85.80;;;;;;5072379;28;20128;-11
2022/08/31 07:01:09;;;;;;;6.03;3.75;;;20.50;85.80;;;;;;5072642;28;20068;-10
2022/08/31 07:03:37;;;;;;;5.95;4.15;;;20.50;85.60;;;;;;5076177;28;20028;-11
2022/08/31 07:06:14;;;;;;;5.82;3.80;;;20.50;85.70;;;;;;5076996;28;20029;-11
2022/08/31 07:08:40;;;;;;;5.70;3.40;;;20.60;85.70;;;;;;5076098;28;20039;-11
2022/08/31 07:11:15;;;;;;;4.88;3.63;;;20.70;85.60;;;;;;5075795;28;20078;-10
2022/08/31 07:13:41;;;;;;;5.35;3.45;;;20.80;85.30;;;;;;5076551;28;20104;-10
2022/08/31 07:16:10;;;;;;;5.68;3.80;;;20.90;85.20;;;;;;5075881;28;20159;-10
2022/08/31 07:18:37;;;;;;;6.88;3.45;;;20.90;85.10;;;;;;5076062;28;20029;-10
2022/08/31 07:21:24;;;;;;;6.72;3.55;;;21.00;85.00;;;;;;5076043;28;20043;-11
2022/08/31 07:23:51;;;;;;;4.75;3.28;;;21.10;84.60;;;;;;5076117;28;20101;-11
2022/08/31 07:26:23;;;;;;;7.93;3.92;;;21.10;84.70;;;;;;5076066;28;20024;-10
2022/08/31 07:28:52;;;;;;;6.68;3.60;;;21.20;84.60;;;;;;5075904;28;20107;-11
2022/08/31 07:31:24;;;;;;;5.35;3.67;;;21.30;84.60;;;;;;5076181;28;20023;-11
2022/08/31 07:33:54;;;;;;;5.43;3.97;;;21.40;84.40;;;;;;5075873;28;20029;-10
2022/08/31 07:36:23;;;;;;;5.00;3.90;;;21.50;84.20;;;;;;5075503;28;20098;-10
2022/08/31 07:44:20;;;;;;;5.95;3.38;;;22.10;83.40;;;;;;5075606;28;20527;-11
2022/08/31 07:46:48;;;;;;;4.32;3.38;;;22.40;83.00;;;;;;5075447;28;20074;-11
2022/08/31 07:49:16;;;;;;;3.80;2.83;;;22.60;82.20;;;;;;5075704;28;20048;-10
2022/08/31 07:51:50;;;;;;;5.63;3.63;;;22.90;82.00;;;;;;5075559;28;20039;-10
2022/08/31 07:54:22;;;;;;;4.65;3.67;;;23.20;81.20;;;;;;5075639;28;20020;-11
2022/08/31 07:56:49;;;;;;;5.60;3.40;;;23.50;80.80;;;;;;5075291;28;20458;-11
2022/08/31 07:59:17;;;;;;;5.38;4.10;;;23.70;79.80;;;;;;5074738;28;20060;-10
2022/08/31 08:01:43;;;;;;;3.97;2.88;;;23.80;79.10;;;;;;5075063;28;20028;-10
2022/08/31 08:04:14;;;;;;;3.47;2.80;;;23.90;78.50;;;;;;5074974;28;20538;-10
2022/08/31 08:06:40;;;;;;;3.63;3.00;;;24.00;78.20;;;;;;5075283;28;20028;-10
2022/08/31 08:09:06;;;;;;;4.35;2.88;;;24.10;77.90;;;;;;5074819;28;20016;-11
2022/08/31 08:11:36;;;;;;;4.13;2.90;;;24.30;76.60;;;;;;5074915;28;20392;-10
2022/08/31 08:14:04;;;;;;;6.18;2.80;;;24.40;76.40;;;;;;5074499;28;20107;-10
2022/08/31 08:16:31;;;;;;;3.05;2.70;;;24.50;74.30;;;;;;5074984;28;20028;-12
2022/08/31 08:18:57;;;;;;;3.15;2.60;;;24.60;74.00;;;;;;5074617;28;20036;-11
2022/08/31 08:21:24;;;;;;;3.40;2.70;;;24.70;74.10;;;;;;5074871;28;20035;-11
2022/08/31 08:23:50;;;;;;;3.70;2.47;;;24.70;73.70;;;;;;5073309;28;20024;-10
2022/08/31 08:26:16;;;;;;;2.83;2.60;;;24.80;73.70;;;;;;5073262;28;20051;-10
2022/08/31 08:28:42;;;;;;;4.35;2.92;;;24.80;72.50;;;;;;5074671;28;20372;-11
2022/08/31 08:31:17;;;;;;;4.65;2.80;;;24.80;70.10;;;;;;5074215;28;20055;-11
2022/08/31 08:33:44;;;;;;;2.83;2.35;;;24.90;71.10;;;;;;5074207;28;20024;-11
2022/08/31 08:36:14;;;;;;;5.22;3.13;;;24.90;71.20;;;;;;5074254;28;20083;-11
2022/08/31 08:38:42;;;;;;;4.72;2.88;;;24.90;70.20;;;;;;5074466;28;20021;-11
2022/08/31 08:41:19;;;;;;;4.05;3.08;;;25.00;69.70;;;;;;5074369;28;20027;-10
2022/08/31 08:43:51;;;;;;;51.75;13.57;;;24.90;69.20;;;;;;5074443;28;20107;-10
2022/08/31 08:46:20;;;;;;;4.20;3.13;;;24.90;69.70;;;;;;5074270;28;20032;-11
2022/08/31 08:48:48;;;;;;;4.68;2.90;;;24.90;69.80;;;;;;5072563;28;20024;-11
2022/08/31 08:51:20;;;;;;;4.53;2.75;;;24.90;70.20;;;;;;5074340;28;20039;-11
2022/08/31 08:53:51;;;;;;;3.05;2.42;;;25.00;69.90;;;;;;5073888;28;20036;-9
2022/08/31 08:56:19;;;;;;;3.35;2.97;;;25.10;69.80;;;;;;5074189;28;20024;-11
2022/08/31 08:58:45;;;;;;;3.83;2.97;;;25.10;68.10;;;;;;5073516;28;20493;-11
2022/08/31 09:01:20;;;;;;;3.35;2.53;;;25.10;68.00;;;;;;5073524;28;20070;-11
2022/08/31 09:03:55;;;;;;;3.03;2.65;;;25.00;67.70;;;;;;5073618;28;20107;-16
2022/08/31 09:06:53;;;;;;;5.43;3.08;;;25.00;67.70;;;;;;5073868;28;20020;-11
2022/08/31 09:09:19;;;;;;;4.25;3.08;;;25.00;68.40;;;;;;5074345;28;20036;-11
2022/08/31 09:12:03;;;;;;;4.80;2.72;;;25.30;68.80;;;;;;5073919;28;20029;-10
2022/08/31 09:15:14;;;;;;;3.35;2.88;;;25.80;68.40;;;;;;5073592;28;20491;-10
2022/08/31 09:18:02;;;;;;;4.05;3.00;;;26.40;64.90;;;;;;5071517;28;20033;-11
2022/08/31 09:20:29;;;;;;;4.35;3.10;;;26.80;64.20;;;;;;5071573;28;20036;-11
2022/08/31 09:22:57;;;;;;;4.70;3.00;;;27.20;63.20;;;;;;5071251;28;20044;-11
2022/08/31 09:25:33;;;;;;;4.45;3.05;;;27.50;62.20;;;;;;5070818;28;20032;-11
2022/08/31 09:28:06;;;;;;;5.70;3.20;;;27.70;61.50;;;;;;5071469;28;20025;-11
2022/08/31 09:30:39;;;;;;;4.28;3.00;;;27.70;58.00;;;;;;5071421;28;20554;-10
2022/08/31 09:33:06;;;;;;;6.50;3.60;;;27.90;60.80;;;;;;5071182;28;20029;-10
2022/08/31 09:35:40;;;;;;;3.33;3.00;;;28.00;60.40;;;;;;5071248;28;20040;-11
2022/08/31 09:38:10;;;;;;;3.72;3.10;;;28.40;59.20;;;;;;5071365;28;20024;-11
2022/08/31 09:40:42;;;;;;;5.07;3.20;;;28.50;59.00;;;;;;5071198;28;20036;-12
2022/08/31 09:43:24;;;;;;;5.72;4.10;;;28.70;59.30;;;;;;5071067;28;20029;-11
2022/08/31 09:46:03;;;;;;;4.72;3.50;;;28.90;58.50;;;;;;5071261;28;20039;-12
2022/08/31 09:48:42;;;;;;;4.97;3.10;;;29.10;57.20;;;;;;5072377;28;20028;-12
2022/08/31 09:51:09;;;;;;;5.55;3.50;;;29.00;54.20;;;;;;5073279;28;20025;-11
2022/08/31 09:56:26;;;;;;;4.30;3.50;;;29.10;56.20;;;;;;5073699;28;20043;-11
2022/08/31 09:58:55;;;;;;;4.75;3.92;;;29.30;56.40;;;;;;5072717;28;20052;-11
2022/08/31 10:01:43;;;;;;;4.90;3.40;;;29.50;55.90;;;;;;5073365;28;20191;-11
2022/08/31 10:04:24;;;;;;;4.80;3.40;;;29.80;53.80;;;;;;5073256;28;20099;-12
2022/08/31 10:07:12;;;;;;;4.75;3.50;;;29.90;53.90;;;;;;5072819;28;20017;-11
2022/08/31 10:09:45;;;;;;;4.85;3.78;;;30.00;55.00;;;;;;5073654;28;20039;-12
2022/08/31 10:12:40;;;;;;;5.70;3.95;;;30.30;54.80;;;;;;5073334;28;20105;-11
2022/08/31 10:15:34;;;;;;;7.07;4.13;;;29.70;53.30;;;;;;5073114;28;20036;-12
2022/08/31 10:18:36;;;;;;;4.65;4.03;;;29.70;54.30;;;;;;5073220;28;20029;-11
2022/08/31 10:21:19;;;;;;;6.07;4.50;;;29.80;53.40;;;;;;5072719;28;20044;-11
2022/08/31 10:24:19;;;;;;;5.63;3.90;;;30.00;54.40;;;;;;5073221;28;20055;-12
2022/08/31 10:26:52;;;;;;;4.90;3.88;;;30.30;52.00;;;;;;5073137;28;20481;-12
2022/08/31 10:29:32;;;;;;;4.60;3.83;;;30.50;52.90;;;;;;5072852;28;20021;-12
2022/08/31 10:32:08;;;;;;;5.93;3.80;;;30.80;52.10;;;;;;5073296;28;20078;-11
2022/08/31 10:37:32;;;;;;;4.88;4.05;;;31.30;50.70;;;;;;5076801;28;20035;-12
2022/08/31 10:40:16;;;;;;;3.90;3.50;;;31.40;51.50;;;;;;5076974;28;20044;-12
2022/08/31 10:42:58;;;;;;;4.65;3.55;;;31.80;50.40;;;;;;5076657;28;20025;-12
2022/08/31 10:45:28;;;;;;;3.85;3.45;;;32.30;50.10;;;;;;5076587;28;20545;-11
2022/08/31 10:47:56;;;;;;;4.78;3.78;;;32.70;49.40;;;;;;5076777;28;20025;-11
2022/08/31 10:50:50;;;;;;;5.57;3.85;;;33.20;48.50;;;;;;5076447;28;20503;-12
2022/08/31 10:53:41;;;;;;;5.60;4.22;;;33.50;46.30;;;;;;5077053;28;20566;-11
2022/08/31 10:56:43;;;;;;;5.50;4.15;;;33.20;45.50;;;;;;5076712;28;20024;-12
2022/08/31 10:59:28;;;;;;;3.73;3.30;;;33.20;46.10;;;;;;5075282;28;20408;-12
2022/08/31 11:02:24;;;;;;;4.25;3.20;;;33.30;46.70;;;;;;5076307;28;20091;-12
2022/08/31 11:05:02;;;;;;;5.30;3.88;;;33.70;45.60;;;;;;5074637;28;20021;-12
2022/08/31 11:07:37;;;;;;;4.13;3.65;;;34.20;45.10;;;;;;5076206;28;20468;-12
2022/08/31 11:10:24;;;;;;;4.82;3.83;;;34.50;41.70;;;;;;5076092;28;20491;-12
2022/08/31 11:12:57;;;;;;;5.18;3.80;;;34.50;41.10;;;;;;5076500;28;20457;-12
2022/08/31 11:15:38;;;;;;;4.38;3.80;;;34.60;42.90;;;;;;5076149;28;20492;-12
2022/08/31 11:18:13;;;;;;;5.57;3.90;;;34.50;42.90;;;;;;5075806;28;20036;-13
2022/08/31 11:20:50;;;;;;;4.82;3.72;;;34.50;43.00;;;;;;5074658;28;20067;-12
2022/08/31 11:23:43;;;;;;;5.82;3.80;;;34.60;42.60;;;;;;5076397;28;20024;-12
2022/08/31 11:26:27;;;;;;;;;;;34.50;43.00;;;;;;5076384;28;20413;-11
2022/08/31 11:29:02;;;;;;;4.57;3.50;;;34.60;42.10;;;;;;5075470;28;19992;-12
2022/08/31 11:31:31;;;;;;;5.78;4.00;;;34.90;43.80;;;;;;5076796;28;20090;-12
2022/08/31 11:34:26;;;;;;;4.63;3.70;;;34.90;43.50;;;;;;5075540;28;20063;-12
2022/08/31 11:36:59;;;;;;;8.45;3.95;;;34.80;42.70;;;;;;5076211;28;20032;-12
2022/08/31 11:39:38;;;;;;;4.63;3.80;;;34.80;43.60;;;;;;5075723;28;20039;-11
2022/08/31 11:42:11;;;;;;;5.70;4.25;;;34.50;42.80;;;;;;5075830;28;20037;-11
2022/08/31 11:44:40;;;;;;;4.60;3.25;;;34.00;43.80;;;;;;5075818;28;20033;-12
2022/08/31 11:47:27;;;;;;;3.97;3.42;;;33.60;45.10;;;;;;5075173;28;20090;-12
2022/08/31 11:49:58;;;;;;;4.22;3.80;;;33.40;44.70;;;;;;5075636;28;20093;-13
2022/08/31 11:52:30;;;;;;;4.68;3.80;;;33.20;45.20;;;;;;5075321;28;20029;-13
2022/08/31 11:55:17;;;;;;;6.10;3.50;;;32.90;45.00;;;;;;5075563;28;20028;-12
2022/08/31 11:58:06;;;;;;;4.93;3.75;;;32.60;45.10;;;;;;5075003;28;20037;-12
2022/08/31 12:01:02;;;;;;;4.53;3.80;;;32.50;46.20;;;;;;5075665;28;20040;-12
2022/08/31 12:03:54;;;;;;;4.70;3.92;;;32.50;46.00;;;;;;5075511;28;20059;-12
2022/08/31 12:06:36;;;;;;;6.25;3.97;;;32.30;46.80;;;;;;5075430;28;20074;-12
2022/08/31 12:09:21;;;;;;;4.23;3.60;;;32.00;47.40;;;;;;5075164;28;20040;-12
2022/08/31 12:12:05;;;;;;;5.03;3.92;;;31.90;48.40;;;;;;5075000;28;20279;-12
2022/08/31 12:14:38;;;;;;;4.43;3.53;;;31.80;46.70;;;;;;5075297;28;20040;-12
2022/08/31 12:17:22;;;;;;;4.72;3.83;;;31.60;48.10;;;;;;5074715;28;20033;-13
2022/08/31 12:20:07;;;;;;;5.55;3.60;;;31.60;48.00;;;;;;5074905;28;20044;-12
2022/08/31 12:23:36;;;;;;;3.92;3.50;;;31.80;46.70;;;;;;5075114;28;20211;-12
2022/08/31 12:26:42;;;;;;;4.53;3.55;;;31.90;46.60;;;;;;5072566;28;20040;-12
2022/08/31 12:29:20;;;;;;;5.15;3.70;;;32.00;46.40;;;;;;5063750;28;20519;-13
2022/08/31 12:32:28;;;;;;;4.25;3.47;;;31.80;46.80;;;;;;5074888;28;20036;-12
2022/08/31 12:35:18;;;;;;;3.80;3.30;;;31.60;47.00;;;;;;5074245;28;20108;-11
2022/08/31 12:37:56;;;;;;;5.07;3.42;;;31.60;47.80;;;;;;5073994;28;20093;-13
2022/08/31 12:40:24;;;;;;;3.97;3.58;;;31.60;48.40;;;;;;5074292;28;20032;-13
2022/08/31 12:42:55;;;;;;;5.13;3.65;;;31.50;48.50;;;;;;5074372;28;20029;-12
2022/08/31 12:45:53;;;;;;;5.03;3.80;;;31.40;47.20;;;;;;5074298;28;20078;-12
2022/08/31 12:48:31;;;;;;;4.00;3.60;;;31.40;47.50;;;;;;5074182;28;20103;-12
2022/08/31 12:51:33;;;;;;;4.22;3.83;;;31.40;49.50;;;;;;5074630;28;20046;-12
2022/08/31 12:54:04;;;;;;;4.25;3.60;;;31.90;46.30;;;;;;5055279;28;20032;-12
2022/08/31 12:56:42;;;;;;;5.35;3.72;;;32.30;46.90;;;;;;5074457;28;20415;-12
2022/08/31 12:59:42;;;;;;;3.72;3.40;;;32.60;46.30;;;;;;5072934;28;20053;-13
2022/08/31 13:02:11;;;;;;;4.45;3.88;;;32.70;44.70;;;;;;5072806;28;20024;-12
2022/08/31 13:04:44;;;;;;;3.90;3.50;;;32.50;46.80;;;;;;5073722;28;20024;-12
2022/08/31 13:07:18;;;;;;;3.83;3.22;;;32.40;46.40;;;;;;5073637;28;20555;-12
2022/08/31 13:09:44;;;;;;;3.80;2.97;;;32.40;46.10;;;;;;5073914;28;20387;-11
2022/08/31 13:12:21;;;;;;;4.45;3.50;;;32.70;46.00;;;;;;5074060;28;20098;-11
2022/08/31 13:14:48;;;;;;;4.60;3.15;;;33.10;44.50;;;;;;5073996;28;20024;-13
2022/08/31 13:17:20;;;;;;;4.50;3.60;;;33.20;44.60;;;;;;5074472;28;20439;-12
2022/08/31 13:19:57;;;;;;;5.75;3.67;;;33.20;45.10;;;;;;5073894;28;20055;-12
2022/08/31 13:22:33;;;;;;;3.72;3.20;;;33.50;44.00;;;;;;5073884;28;20047;-12
2022/08/31 13:25:30;;;;;;;5.15;3.33;;;34.10;43.30;;;;;;5073633;28;20055;-12
2022/08/31 13:27:56;;;;;;;4.00;3.13;;;34.50;41.70;;;;;;5073840;28;20031;-14